Time;durP1;ratioP1;P1;durP2;ratioP2;P2;SDS_P1;SDS_P2;PMS_P1;PMS_P2;Temp;Humidity;BMP_temperature;BMP_pressure;BME280_temperature;BME280_humidity;BME280_pressure;Samples;Min_cycle;Max_cycle;Signal;HPM_P1;HPM_P2
2021/07/24 00:00:35;;;;;;;4.95;4.10;;;;;;;;;;10492513;28;20031;-82
2021/07/24 00:05:36;;;;;;;7.53;6.35;;;;;;;;;;10492395;28;20064;-82
2021/07/24 00:10:37;;;;;;;5.13;4.10;;;;;;;;;;10510464;28;20394;-82
2021/07/24 00:15:38;;;;;;;5.75;4.25;;;;;;;;;;10492235;28;20112;-82
2021/07/24 00:20:39;;;;;;;5.88;4.93;;;;;;;;;;10510104;28;20028;-82
2021/07/24 00:25:40;;;;;;;7.45;5.32;;;;;;;;;;10509082;28;20021;-82
2021/07/24 00:30:42;;;;;;;4.80;4.22;;;;;;;;;;10491853;28;20016;-83
2021/07/24 00:35:43;;;;;;;7.72;4.35;;;;;;;;;;10490920;28;20029;-82
2021/07/24 00:40:45;;;;;;;5.55;4.95;;;;;;;;;;10490796;28;20053;-83
2021/07/24 00:45:47;;;;;;;6.78;4.82;;;;;;;;;;10490871;28;20470;-83
2021/07/24 00:50:49;;;;;;;6.57;4.82;;;;;;;;;;10510218;28;20033;-82
2021/07/24 00:55:53;;;;;;;7.20;5.28;;;;;;;;;;10490836;28;20474;-83
2021/07/24 01:00:54;;;;;;;6.32;4.15;;;;;;;;;;10490979;28;20036;-83
2021/07/24 01:05:56;;;;;;;5.22;4.13;;;;;;;;;;10490487;28;20062;-82
2021/07/24 01:10:56;;;;;;;5.22;4.63;;;;;;;;;;10509123;28;20042;-82
2021/07/24 01:16:18;;;;;;;4.95;4.45;;;;;;;;;;10514790;22;20099;-84
2021/07/24 01:38:49;;;;;;;7.47;5.85;;;;;;;;;;10420150;28;20025;-84
2021/07/24 01:54:57;;;;;;;6.50;4.88;;;;;;;;;;10419343;28;20029;-86
2021/07/24 02:00:12;;;;;;;5.53;4.93;;;;;;;;;;10400371;28;20026;-86
2021/07/24 02:05:34;;;;;;;4.80;3.78;;;;;;;;;;10400210;28;20087;-86
2021/07/24 02:10:57;;;;;;;4.68;4.00;;;;;;;;;;10420642;28;20033;-86
2021/07/24 02:16:19;;;;;;;5.78;4.97;;;;;;;;;;10409507;28;20044;-85
2021/07/24 02:21:39;;;;;;;8.63;5.85;;;;;;;;;;10423730;28;20124;-86
2021/07/24 02:27:06;;;;;;;7.75;5.30;;;;;;;;;;10414739;28;20439;-86
2021/07/24 02:37:46;;;;;;;5.13;4.22;;;;;;;;;;10426795;28;20037;-86
2021/07/24 02:43:48;;;;;;;7.57;5.28;;;;;;;;;;10424099;28;20033;-85
2021/07/24 02:48:49;;;;;;;5.15;4.63;;;;;;;;;;10417419;28;20037;-84
2021/07/24 02:53:57;;;;;;;7.78;5.30;;;;;;;;;;10425456;28;20026;-84
2021/07/24 02:58:58;;;;;;;5.65;4.80;;;;;;;;;;10433701;28;20018;-84
2021/07/24 03:03:59;;;;;;;6.53;5.82;;;;;;;;;;10436965;28;20056;-84
2021/07/24 03:09:03;;;;;;;8.15;6.90;;;;;;;;;;10432184;28;20064;-84
2021/07/24 03:14:04;;;;;;;5.50;4.50;;;;;;;;;;10425815;28;20030;-84
2021/07/24 03:19:05;;;;;;;6.00;5.30;;;;;;;;;;10422855;28;20029;-84
2021/07/24 03:24:06;;;;;;;5.70;4.75;;;;;;;;;;10407422;28;20033;-85
2021/07/24 03:29:07;;;;;;;6.82;4.93;;;;;;;;;;10407391;28;20067;-85
2021/07/24 03:34:08;;;;;;;4.97;4.38;;;;;;;;;;10409008;28;20033;-85
2021/07/24 03:39:09;;;;;;;6.00;5.03;;;;;;;;;;10421334;28;20021;-85
2021/07/24 03:44:10;;;;;;;6.28;5.20;;;;;;;;;;10410319;28;20392;-85
2021/07/24 03:49:11;;;;;;;9.27;4.80;;;;;;;;;;10408570;28;20538;-85
2021/07/24 03:54:12;;;;;;;5.38;4.85;;;;;;;;;;10413480;28;20056;-85
2021/07/24 03:59:13;;;;;;;6.70;6.00;;;;;;;;;;10417494;28;20072;-85
2021/07/24 04:04:14;;;;;;;5.47;4.63;;;;;;;;;;10408797;28;20032;-85
2021/07/24 04:09:15;;;;;;;8.15;7.22;;;;;;;;;;10407377;28;20024;-86
2021/07/24 04:14:16;;;;;;;8.18;6.82;;;;;;;;;;10405725;28;20183;-85
2021/07/24 04:19:17;;;;;;;6.63;5.47;;;;;;;;;;10410475;28;20060;-85
2021/07/24 04:24:18;;;;;;;5.78;5.18;;;;;;;;;;10405042;28;20069;-86
2021/07/24 04:29:19;;;;;;;7.80;6.25;;;;;;;;;;10421140;28;20124;-86
2021/07/24 04:34:20;;;;;;;5.93;4.80;;;;;;;;;;10404232;28;20112;-86
2021/07/24 04:39:21;;;;;;;7.20;5.13;;;;;;;;;;10424450;28;20115;-85
2021/07/24 04:44:22;;;;;;;7.28;5.80;;;;;;;;;;10454207;28;20037;-86
2021/07/24 04:49:23;;;;;;;8.63;7.35;;;;;;;;;;10404810;28;20025;-86
2021/07/24 04:54:24;;;;;;;9.05;7.25;;;;;;;;;;10421691;28;20058;-86
2021/07/24 04:59:25;;;;;;;7.15;5.20;;;;;;;;;;10403232;28;20028;-86
2021/07/24 05:04:26;;;;;;;8.65;6.82;;;;;;;;;;10401780;28;20033;-86
2021/07/24 05:09:28;;;;;;;8.70;6.97;;;;;;;;;;10419608;28;20028;-86
2021/07/24 05:14:29;;;;;;;7.90;6.50;;;;;;;;;;10401201;28;20036;-87
2021/07/24 05:19:30;;;;;;;8.63;6.80;;;;;;;;;;10400142;28;20034;-86
2021/07/24 05:24:31;;;;;;;8.45;6.85;;;;;;;;;;10400660;28;20093;-85
2021/07/24 05:29:33;;;;;;;10.15;5.65;;;;;;;;;;10403607;28;20526;-84
2021/07/24 05:34:34;;;;;;;6.18;5.13;;;;;;;;;;10402256;28;20029;-85
2021/07/24 05:39:35;;;;;;;9.52;7.97;;;;;;;;;;10402360;28;20243;-85
2021/07/24 05:44:57;;;;;;;7.97;6.50;;;;;;;;;;10402334;28;20193;-84
2021/07/24 05:49:58;;;;;;;8.82;7.93;;;;;;;;;;10425952;28;20024;-84
2021/07/24 05:55:01;;;;;;;8.55;6.28;;;;;;;;;;10426479;28;20105;-86
2021/07/24 06:00:16;;;;;;;6.75;5.10;;;;;;;;;;10442203;28;20017;-86
2021/07/24 06:05:23;;;;;;;11.45;8.30;;;;;;;;;;10441193;28;20026;-86
2021/07/24 06:16:34;;;;;;;5.10;4.05;;;;;;;;;;10329501;28;20090;-86
2021/07/24 06:27:38;;;;;;;10.75;7.88;;;;;;;;;;10285917;28;20044;-85
2021/07/24 06:32:42;;;;;;;8.43;6.32;;;;;;;;;;10236548;29;20486;-85
2021/07/24 06:37:43;;;;;;;7.72;6.07;;;;;;;;;;10371749;28;20037;-85
2021/07/24 06:42:44;;;;;;;10.38;7.80;;;;;;;;;;10422446;28;20030;-85
2021/07/24 06:47:45;;;;;;;7.85;6.32;;;;;;;;;;10422032;28;20025;-85
2021/07/24 06:52:46;;;;;;;7.72;6.70;;;;;;;;;;10418103;28;20088;-86
2021/07/24 06:57:47;;;;;;;7.25;6.30;;;;;;;;;;10427855;28;20022;-85
2021/07/24 07:02:48;;;;;;;6.95;6.25;;;;;;;;;;10428866;28;20026;-82
2021/07/24 07:07:49;;;;;;;7.70;5.68;;;;;;;;;;10437746;28;20031;-84
2021/07/24 07:12:50;;;;;;;7.78;6.55;;;;;;;;;;10443843;28;20033;-84
2021/07/24 07:17:54;;;;;;;7.63;5.53;;;;;;;;;;10492821;22;20068;-86
2021/07/24 07:22:55;;;;;;;6.75;5.40;;;;;;;;;;10413899;28;20041;-87
2021/07/24 07:27:56;;;;;;;6.85;5.80;;;;;;;;;;10413959;28;20029;-87
2021/07/24 07:32:57;;;;;;;9.98;6.88;;;;;;;;;;10431426;28;20033;-87
2021/07/24 07:37:59;;;;;;;11.52;7.63;;;;;;;;;;10413422;28;20097;-87
2021/07/24 07:43:04;;;;;;;11.82;7.60;;;;;;;;;;10439451;28;20105;-84
2021/07/24 07:48:05;;;;;;;12.73;6.13;;;;;;;;;;10447355;28;20022;-83
2021/07/24 07:53:06;;;;;;;8.98;7.03;;;;;;;;;;10437910;28;20026;-82
2021/07/24 07:58:11;;;;;;;10.23;6.65;;;;;;;;;;10412135;28;20105;-85
2021/07/24 08:03:11;;;;;;;8.52;6.47;;;;;;;;;;10429250;28;20497;-85
2021/07/24 08:08:14;;;;;;;8.40;5.70;;;;;;;;;;10411180;28;20128;-86
2021/07/24 08:13:16;;;;;;;11.82;6.38;;;;;;;;;;10410961;28;20032;-87
2021/07/24 08:18:17;;;;;;;10.02;7.85;;;;;;;;;;10433576;28;20033;-86
2021/07/24 08:23:18;;;;;;;8.75;6.85;;;;;;;;;;10412891;28;20116;-88
2021/07/24 08:28:19;;;;;;;9.52;7.90;;;;;;;;;;10416547;28;20124;-87
2021/07/24 08:33:20;;;;;;;10.80;7.32;;;;;;;;;;10413682;28;20064;-87
2021/07/24 08:38:21;;;;;;;9.02;7.30;;;;;;;;;;10442561;28;20143;-87
2021/07/24 08:43:22;;;;;;;11.68;7.13;;;;;;;;;;10420089;28;20029;-87
2021/07/24 08:48:23;;;;;;;9.27;7.00;;;;;;;;;;10420228;28;20026;-86
2021/07/24 08:53:26;;;;;;;8.98;7.38;;;;;;;;;;10425324;28;20029;-87
2021/07/24 08:58:27;;;;;;;9.23;8.02;;;;;;;;;;10427267;28;20032;-86
2021/07/24 09:03:32;;;;;;;8.23;7.40;;;;;;;;;;10423835;28;20063;-84
2021/07/24 09:08:33;;;;;;;9.93;7.13;;;;;;;;;;10422445;28;20025;-85
2021/07/24 09:13:34;;;;;;;8.48;6.90;;;;;;;;;;10411135;28;20099;-85
2021/07/24 09:18:36;;;;;;;9.18;6.95;;;;;;;;;;10403907;28;20433;-85
2021/07/24 09:23:40;;;;;;;10.50;8.10;;;;;;;;;;10404240;28;20021;-86
2021/07/24 09:28:42;;;;;;;9.77;7.57;;;;;;;;;;10426648;28;20026;-88
2021/07/24 09:33:49;;;;;;;11.40;8.02;;;;;;;;;;10411139;28;20064;-87
2021/07/24 09:38:50;;;;;;;9.60;7.15;;;;;;;;;;10414493;28;20009;-87
2021/07/24 09:43:59;;;;;;;17.77;15.98;;;;;;;;;;10411561;28;20473;-86
2021/07/24 09:49:10;;;;;;;10.43;9.00;;;;;;;;;;10407916;28;20471;-86
2021/07/24 09:54:25;;;;;;;9.98;8.10;;;;;;;;;;10425108;28;20096;-86
2021/07/24 09:59:29;;;;;;;10.35;8.63;;;;;;;;;;10424052;28;20025;-86
2021/07/24 10:04:31;;;;;;;12.25;9.07;;;;;;;;;;10437813;28;20042;-86
2021/07/24 10:09:33;;;;;;;10.15;8.30;;;;;;;;;;10441178;28;20022;-85
2021/07/24 10:14:35;;;;;;;12.07;8.60;;;;;;;;;;10436745;28;20037;-82
2021/07/24 10:19:36;;;;;;;9.95;8.45;;;;;;;;;;10432863;28;20038;-83
2021/07/24 10:24:37;;;;;;;11.65;9.52;;;;;;;;;;10407738;28;20495;-84
2021/07/24 10:29:48;;;;;;;10.63;9.23;;;;;;;;;;10409992;28;20475;-83
2021/07/24 10:34:50;;;;;;;9.88;8.60;;;;;;;;;;10414006;28;20086;-84
2021/07/24 10:39:51;;;;;;;12.98;9.68;;;;;;;;;;10414106;28;20017;-84
2021/07/24 10:44:52;;;;;;;14.55;10.13;;;;;;;;;;10414066;28;20029;-86
2021/07/24 10:49:55;;;;;;;14.60;10.35;;;;;;;;;;10414206;28;20026;-84
2021/07/24 10:55:12;;;;;;;12.80;10.43;;;;;;;;;;10430913;28;20021;-82
2021/07/24 11:00:19;;;;;;;13.77;10.20;;;;;;;;;;10410780;28;20037;-82
2021/07/24 11:05:23;;;;;;;11.52;10.10;;;;;;;;;;10419342;28;20037;-84
2021/07/24 11:10:24;;;;;;;13.25;11.18;;;;;;;;;;10412669;28;20025;-85
2021/07/24 11:15:43;;;;;;;10.68;9.20;;;;;;;;;;10432165;28;20017;-83
2021/07/24 11:20:46;;;;;;;11.75;9.38;;;;;;;;;;10439658;28;20418;-82
2021/07/24 11:25:47;;;;;;;11.38;10.15;;;;;;;;;;10425388;28;20025;-82
2021/07/24 11:31:05;;;;;;;11.77;9.95;;;;;;;;;;10427005;28;20099;-85
2021/07/24 11:36:07;;;;;;;14.65;10.73;;;;;;;;;;10435701;28;20030;-84
2021/07/24 11:41:11;;;;;;;13.38;10.85;;;;;;;;;;10441883;28;20040;-85
2021/07/24 11:46:13;;;;;;;12.10;10.10;;;;;;;;;;10412814;28;20025;-85
2021/07/24 11:51:15;;;;;;;10.43;9.32;;;;;;;;;;10415483;28;20045;-83
2021/07/24 12:02:09;;;;;;;11.85;10.57;;;;;;;;;;10429190;28;20025;-85
2021/07/24 12:19:13;;;;;;;14.15;10.68;;;;;;;;;;10391951;28;20046;-88
2021/07/24 12:52:44;;;;;;;12.95;10.63;;;;;;;;;;10380429;28;20032;-87
2021/07/24 12:58:07;;;;;;;12.48;11.18;;;;;;;;;;10390043;28;20026;-85
2021/07/24 13:03:08;;;;;;;11.77;10.57;;;;;;;;;;10391064;28;20080;-86
2021/07/24 13:08:10;;;;;;;11.68;10.40;;;;;;;;;;10419596;28;20032;-85
2021/07/24 13:13:11;;;;;;;12.35;10.90;;;;;;;;;;10416090;28;20125;-85
2021/07/24 13:18:12;;;;;;;14.25;11.85;;;;;;;;;;10418149;28;20060;-84
2021/07/24 13:23:13;;;;;;;13.50;11.48;;;;;;;;;;10421904;28;20033;-84
2021/07/24 13:28:14;;;;;;;13.05;11.63;;;;;;;;;;10411119;28;20116;-86
2021/07/24 13:33:16;;;;;;;13.75;12.07;;;;;;;;;;10416887;28;20049;-85
2021/07/24 13:38:17;;;;;;;13.00;10.10;;;;;;;;;;10424414;28;20104;-85
2021/07/24 13:43:18;;;;;;;12.90;11.48;;;;;;;;;;10423207;28;20064;-85
2021/07/24 13:48:19;;;;;;;12.30;10.80;;;;;;;;;;10422852;28;20033;-85
2021/07/24 13:53:20;;;;;;;16.13;11.52;;;;;;;;;;10422494;28;20034;-85
2021/07/24 13:58:21;;;;;;;13.85;11.60;;;;;;;;;;10404139;28;20506;-88
2021/07/24 14:03:23;;;;;;;13.80;12.38;;;;;;;;;;10403781;28;20022;-88
2021/07/24 14:08:24;;;;;;;14.52;13.00;;;;;;;;;;10401728;28;20565;-89
2021/07/24 14:13:25;;;;;;;14.25;12.85;;;;;;;;;;10403075;28;20032;-88
2021/07/24 14:18:27;;;;;;;12.88;11.05;;;;;;;;;;10402397;28;20037;-88
2021/07/24 14:23:29;;;;;;;15.57;13.15;;;;;;;;;;10401895;28;20037;-88
2021/07/24 14:28:34;;;;;;;13.70;12.07;;;;;;;;;;10407352;28;20022;-85
2021/07/24 14:33:35;;;;;;;11.68;10.00;;;;;;;;;;10406386;28;20076;-88
2021/07/24 14:38:37;;;;;;;16.75;13.82;;;;;;;;;;10403192;28;20029;-88
2021/07/24 14:43:38;;;;;;;14.35;12.32;;;;;;;;;;10402420;28;20029;-88
2021/07/24 14:48:39;;;;;;;13.55;12.15;;;;;;;;;;10401324;28;20022;-88
2021/07/24 14:53:40;;;;;;;15.20;13.70;;;;;;;;;;10400227;28;20029;-88
2021/07/24 14:58:41;;;;;;;14.23;12.30;;;;;;;;;;10400539;28;20048;-88
2021/07/24 15:03:43;;;;;;;14.95;13.32;;;;;;;;;;10401893;28;20037;-88
2021/07/24 15:08:43;;;;;;;16.08;14.38;;;;;;;;;;10436078;28;20029;-88
2021/07/24 15:13:44;;;;;;;17.45;14.65;;;;;;;;;;10432877;28;20040;-88
2021/07/24 15:18:45;;;;;;;14.15;12.65;;;;;;;;;;10407801;28;20487;-88
2021/07/24 15:23:47;;;;;;;16.85;14.80;;;;;;;;;;10408209;28;20030;-88
2021/07/24 15:28:48;;;;;;;15.77;14.18;;;;;;;;;;10408409;28;20493;-88
2021/07/24 15:33:49;;;;;;;16.58;14.73;;;;;;;;;;10408193;28;20030;-88
2021/07/24 15:38:50;;;;;;;16.88;14.43;;;;;;;;;;10407585;28;20418;-88
2021/07/24 15:43:51;;;;;;;16.42;13.77;;;;;;;;;;10408289;28;20029;-88
2021/07/24 15:48:52;;;;;;;18.75;16.48;;;;;;;;;;10429659;28;20034;-88
2021/07/24 15:53:53;;;;;;;18.83;16.83;;;;;;;;;;10408429;28;20032;-88
2021/07/24 15:58:54;;;;;;;15.30;13.80;;;;;;;;;;10406356;28;20029;-88
2021/07/24 16:03:55;;;;;;;15.40;13.65;;;;;;;;;;10407441;28;20065;-87
2021/07/24 16:08:56;;;;;;;16.00;14.30;;;;;;;;;;10408220;28;20021;-88
2021/07/24 16:13:57;;;;;;;18.77;16.30;;;;;;;;;;10407924;28;20029;-88
2021/07/24 16:18:58;;;;;;;18.10;15.52;;;;;;;;;;10407726;28;20496;-88
2021/07/24 16:23:59;;;;;;;13.77;12.30;;;;;;;;;;10423750;28;20030;-88
2021/07/24 16:29:00;;;;;;;24.33;18.33;;;;;;;;;;10422019;28;20026;-88
2021/07/24 16:34:01;;;;;;;14.23;12.63;;;;;;;;;;10404056;28;20502;-88
2021/07/24 16:39:02;;;;;;;12.55;10.95;;;;;;;;;;10400941;28;20029;-88
2021/07/24 16:44:03;;;;;;;13.75;11.82;;;;;;;;;;10413043;28;20033;-86
2021/07/24 16:49:04;;;;;;;14.23;12.77;;;;;;;;;;10414852;28;20112;-85
2021/07/24 16:54:05;;;;;;;15.68;13.95;;;;;;;;;;10419941;28;20044;-85
2021/07/24 16:59:06;;;;;;;13.07;11.48;;;;;;;;;;10424208;28;20036;-85
2021/07/24 17:04:07;;;;;;;13.73;12.32;;;;;;;;;;10426115;28;20060;-84
2021/07/24 17:09:08;;;;;;;17.08;15.38;;;;;;;;;;10423959;28;20384;-85
2021/07/24 17:14:13;;;;;;;18.50;16.58;;;;;;;;;;10423158;28;20036;-83
2021/07/24 17:19:14;;;;;;;17.95;16.15;;;;;;;;;;10423976;28;20033;-84
2021/07/24 17:24:15;;;;;;;16.55;14.85;;;;;;;;;;10441940;28;20048;-84
2021/07/24 17:29:16;;;;;;;19.15;16.92;;;;;;;;;;10422584;28;20459;-85
2021/07/24 17:34:17;;;;;;;19.40;17.30;;;;;;;;;;10422088;28;20079;-84
2021/07/24 17:39:18;;;;;;;17.52;15.82;;;;;;;;;;10420177;28;20029;-89
2021/07/24 17:44:19;;;;;;;24.38;21.75;;;;;;;;;;10407981;28;20113;-87
2021/07/24 17:49:20;;;;;;;23.88;21.48;;;;;;;;;;10416169;28;20079;-84
2021/07/24 17:54:21;;;;;;;19.48;17.42;;;;;;;;;;10413468;28;20036;-90
2021/07/24 17:59:22;;;;;;;16.52;14.82;;;;;;;;;;10404033;28;20032;-89
2021/07/24 18:04:23;;;;;;;24.08;20.13;;;;;;;;;;10403992;28;20025;-87
2021/07/24 18:09:24;;;;;;;12.63;11.40;;;;;;;;;;10417146;28;20120;-86
2021/07/24 18:14:25;;;;;;;18.33;15.27;;;;;;;;;;10417790;28;20033;-85
2021/07/24 18:19:26;;;;;;;15.82;14.15;;;;;;;;;;10435190;28;20081;-88
2021/07/24 18:24:27;;;;;;;17.38;15.52;;;;;;;;;;10423770;28;20064;-87
2021/07/24 18:29:28;;;;;;;21.83;19.33;;;;;;;;;;10401546;28;20414;-88
2021/07/24 18:34:28;;;;;;;23.92;20.67;;;;;;;;;;10401281;28;20392;-87
2021/07/24 18:39:29;;;;;;;16.85;15.15;;;;;;;;;;10407900;28;20072;-85
2021/07/24 18:44:31;;;;;;;15.48;13.82;;;;;;;;;;10448080;28;20107;-86
2021/07/24 18:49:32;;;;;;;15.40;13.77;;;;;;;;;;10452320;28;20032;-87
2021/07/24 18:54:33;;;;;;;19.17;17.27;;;;;;;;;;10406747;28;20049;-88
2021/07/24 18:59:34;;;;;;;23.27;20.73;;;;;;;;;;10409184;28;20018;-86
2021/07/24 19:04:35;;;;;;;16.98;15.20;;;;;;;;;;10412069;28;20029;-86
2021/07/24 19:09:35;;;;;;;18.08;14.52;;;;;;;;;;10411328;28;20035;-86
2021/07/24 19:14:36;;;;;;;18.65;16.58;;;;;;;;;;10413992;28;20026;-86
2021/07/24 19:19:37;;;;;;;12.80;11.52;;;;;;;;;;10444185;23;20052;-84
2021/07/24 19:24:39;;;;;;;16.60;14.85;;;;;;;;;;10425961;28;20056;-84
2021/07/24 19:29:40;;;;;;;17.73;15.93;;;;;;;;;;10389391;28;20068;-85
2021/07/24 19:34:41;;;;;;;18.45;16.55;;;;;;;;;;10381248;28;20032;-85
2021/07/24 19:39:43;;;;;;;15.98;14.27;;;;;;;;;;10380904;28;20376;-85
2021/07/24 19:44:51;;;;;;;20.02;17.73;;;;;;;;;;10389624;28;20026;-85
2021/07/24 19:49:53;;;;;;;20.88;18.67;;;;;;;;;;10393017;28;20022;-83
2021/07/24 20:06:45;;;;;;;19.75;17.55;;;;;;;;;;10388975;28;20025;-85
2021/07/24 20:12:12;;;;;;;19.63;17.52;;;;;;;;;;10388769;28;20026;-85
2021/07/24 20:17:13;;;;;;;20.05;17.95;;;;;;;;;;10417504;28;20041;-85
2021/07/24 20:22:16;;;;;;;18.40;16.45;;;;;;;;;;10426656;28;20057;-84
2021/07/24 20:32:49;;;;;;;21.15;18.25;;;;;;;;;;10426648;28;20075;-85
2021/07/24 20:38:06;;;;;;;25.10;21.67;;;;;;;;;;10406743;28;20028;-85
2021/07/24 20:43:09;;;;;;;22.52;20.10;;;;;;;;;;10407577;28;20014;-86
2021/07/24 20:48:12;;;;;;;14.40;12.77;;;;;;;;;;10390223;28;20018;-85
2021/07/24 20:53:13;;;;;;;18.00;15.63;;;;;;;;;;10421441;28;20048;-85
2021/07/24 20:58:14;;;;;;;18.08;16.13;;;;;;;;;;10406483;28;20029;-85
2021/07/24 21:03:16;;;;;;;21.38;19.17;;;;;;;;;;10413539;28;20029;-85
2021/07/24 21:08:17;;;;;;;22.88;20.42;;;;;;;;;;10370184;28;20046;-85
2021/07/24 21:13:19;;;;;;;19.52;17.40;;;;;;;;;;10390059;28;20506;-85
2021/07/24 21:18:22;;;;;;;29.77;23.63;;;;;;;;;;10387304;28;20037;-85
2021/07/24 21:23:23;;;;;;;17.13;15.32;;;;;;;;;;10366338;28;20045;-85
2021/07/24 21:28:24;;;;;;;14.73;12.63;;;;;;;;;;10376624;28;20033;-86
2021/07/24 21:33:25;;;;;;;15.88;13.68;;;;;;;;;;10373601;28;20026;-86
2021/07/24 21:38:27;;;;;;;22.98;19.80;;;;;;;;;;10387770;28;20026;-85
2021/07/24 21:43:44;;;;;;;16.23;14.55;;;;;;;;;;10364290;28;20121;-86
2021/07/24 21:48:45;;;;;;;18.98;16.98;;;;;;;;;;10370651;28;20022;-85
2021/07/24 21:53:49;;;;;;;16.92;14.23;;;;;;;;;;10359518;28;20113;-86
2021/07/24 21:58:52;;;;;;;14.10;12.70;;;;;;;;;;10363748;28;20033;-86
2021/07/24 22:03:53;;;;;;;26.05;23.35;;;;;;;;;;10375605;28;20026;-86
2021/07/24 22:08:55;;;;;;;18.20;16.33;;;;;;;;;;10379856;28;20035;-86
2021/07/24 22:13:58;;;;;;;24.13;21.33;;;;;;;;;;10360048;28;20030;-86
2021/07/24 22:18:59;;;;;;;22.60;20.15;;;;;;;;;;10359771;28;20046;-86
2021/07/24 22:24:00;;;;;;;15.70;14.02;;;;;;;;;;10356281;28;20429;-86
2021/07/24 22:29:02;;;;;;;12.57;11.38;;;;;;;;;;10364988;28;20028;-86
2021/07/24 22:34:03;;;;;;;18.13;15.68;;;;;;;;;;10392793;28;20452;-86
2021/07/24 22:39:04;;;;;;;12.30;11.02;;;;;;;;;;10385716;28;20053;-85
2021/07/24 22:44:08;;;;;;;25.38;22.67;;;;;;;;;;10353030;28;20034;-85
2021/07/24 22:49:13;;;;;;;18.55;16.58;;;;;;;;;;10387232;28;20022;-85
2021/07/24 22:54:20;;;;;;;17.95;16.02;;;;;;;;;;10388729;28;20029;-85
2021/07/24 23:10:41;;;;;;;16.00;13.93;;;;;;;;;;10385048;28;20018;-86
2021/07/24 23:15:43;;;;;;;15.48;12.98;;;;;;;;;;10392157;28;20046;-85
2021/07/24 23:20:44;;;;;;;12.18;10.90;;;;;;;;;;10397933;28;20037;-86
2021/07/24 23:25:48;;;;;;;21.15;18.95;;;;;;;;;;10370177;28;20437;-85
2021/07/24 23:30:50;;;;;;;14.05;12.43;;;;;;;;;;10369871;28;20045;-84
2021/07/24 23:35:51;;;;;;;17.17;15.02;;;;;;;;;;10369018;28;20535;-86
2021/07/24 23:46:16;;;;;;;18.33;14.77;;;;;;;;;;10387925;28;20030;-85
2021/07/24 23:51:17;;;;;;;15.63;13.93;;;;;;;;;;10366961;28;20025;-86
2021/07/24 23:56:20;;;;;;;17.70;15.82;;;;;;;;;;10371152;28;20034;-85
